sensor_id;sensor_type;location;lat;lon;timestamp;P1;durP1;ratioP1;P2;durP2;ratioP2
60314;SDS011;46159;42.550;21.904;2023-08-07T00:00:06;5.30;;;1.80;;
60314;SDS011;46159;42.550;21.904;2023-08-07T00:02:34;5.60;;;1.45;;
60314;SDS011;46159;42.550;21.904;2023-08-07T00:05:00;5.43;;;1.80;;
60314;SDS011;46159;42.550;21.904;2023-08-07T00:07:27;5.15;;;1.70;;
60314;SDS011;46159;42.550;21.904;2023-08-07T00:09:53;4.75;;;1.70;;
60314;SDS011;46159;42.550;21.904;2023-08-07T00:12:19;5.30;;;1.60;;
60314;SDS011;46159;42.550;21.904;2023-08-07T00:14:47;4.65;;;1.40;;
60314;SDS011;46159;42.550;21.904;2023-08-07T00:17:13;5.50;;;1.67;;
60314;SDS011;46159;42.550;21.904;2023-08-07T00:19:39;4.30;;;1.70;;
60314;SDS011;46159;42.550;21.904;2023-08-07T00:22:05;6.22;;;1.75;;
60314;SDS011;46159;42.550;21.904;2023-08-07T00:24:31;6.15;;;1.80;;
60314;SDS011;46159;42.550;21.904;2023-08-07T00:26:57;5.60;;;1.60;;
60314;SDS011;46159;42.550;21.904;2023-08-07T00:29:23;4.43;;;1.73;;
60314;SDS011;46159;42.550;21.904;2023-08-07T00:31:49;5.82;;;1.55;;
60314;SDS011;46159;42.550;21.904;2023-08-07T00:34:15;5.57;;;1.77;;
60314;SDS011;46159;42.550;21.904;2023-08-07T00:36:41;6.28;;;1.65;;
60314;SDS011;46159;42.550;21.904;2023-08-07T00:39:07;4.28;;;1.50;;
60314;SDS011;46159;42.550;21.904;2023-08-07T00:41:33;5.43;;;1.70;;
60314;SDS011;46159;42.550;21.904;2023-08-07T00:44:00;4.50;;;1.60;;
60314;SDS011;46159;42.550;21.904;2023-08-07T00:46:26;4.15;;;1.60;;
60314;SDS011;46159;42.550;21.904;2023-08-07T00:48:53;5.10;;;1.92;;
60314;SDS011;46159;42.550;21.904;2023-08-07T00:51:19;5.20;;;1.92;;
60314;SDS011;46159;42.550;21.904;2023-08-07T00:53:47;6.18;;;1.80;;
60314;SDS011;46159;42.550;21.904;2023-08-07T00:56:13;5.60;;;2.08;;
60314;SDS011;46159;42.550;21.904;2023-08-07T00:58:40;5.55;;;1.80;;
60314;SDS011;46159;42.550;21.904;2023-08-07T01:01:06;5.18;;;1.67;;
60314;SDS011;46159;42.550;21.904;2023-08-07T01:03:32;4.72;;;1.77;;
60314;SDS011;46159;42.550;21.904;2023-08-07T01:05:59;5.47;;;1.90;;
60314;SDS011;46159;42.550;21.904;2023-08-07T01:08:25;5.15;;;2.10;;
60314;SDS011;46159;42.550;21.904;2023-08-07T01:16:07;6.38;;;2.03;;
60314;SDS011;46159;42.550;21.904;2023-08-07T01:18:35;6.47;;;1.70;;
60314;SDS011;46159;42.550;21.904;2023-08-07T01:21:03;5.13;;;2.15;;
60314;SDS011;46159;42.550;21.904;2023-08-07T01:23:29;5.65;;;2.17;;
60314;SDS011;46159;42.550;21.904;2023-08-07T01:25:55;7.80;;;2.20;;
60314;SDS011;46159;42.550;21.904;2023-08-07T01:30:50;5.38;;;2.30;;
60314;SDS011;46159;42.550;21.904;2023-08-07T01:35:57;6.07;;;3.95;;
60314;SDS011;46159;42.550;21.904;2023-08-07T01:38:24;5.95;;;3.50;;
60314;SDS011;46159;42.550;21.904;2023-08-07T01:40:51;6.63;;;2.60;;
60314;SDS011;46159;42.550;21.904;2023-08-07T01:43:18;5.03;;;2.30;;
60314;SDS011;46159;42.550;21.904;2023-08-07T01:45:44;6.25;;;2.63;;
60314;SDS011;46159;42.550;21.904;2023-08-07T01:48:11;6.22;;;2.38;;
60314;SDS011;46159;42.550;21.904;2023-08-07T01:50:37;5.28;;;2.35;;
60314;SDS011;46159;42.550;21.904;2023-08-07T01:53:04;5.50;;;2.38;;
60314;SDS011;46159;42.550;21.904;2023-08-07T01:55:30;7.25;;;4.45;;
60314;SDS011;46159;42.550;21.904;2023-08-07T01:57:56;7.13;;;3.15;;
60314;SDS011;46159;42.550;21.904;2023-08-07T02:00:22;5.75;;;2.47;;
60314;SDS011;46159;42.550;21.904;2023-08-07T02:02:48;5.30;;;2.30;;
60314;SDS011;46159;42.550;21.904;2023-08-07T02:05:15;5.70;;;2.20;;
60314;SDS011;46159;42.550;21.904;2023-08-07T02:07:41;5.82;;;2.35;;
60314;SDS011;46159;42.550;21.904;2023-08-07T02:10:07;4.95;;;2.05;;
60314;SDS011;46159;42.550;21.904;2023-08-07T02:12:33;5.10;;;2.15;;
60314;SDS011;46159;42.550;21.904;2023-08-07T02:15:00;6.30;;;2.65;;
60314;SDS011;46159;42.550;21.904;2023-08-07T02:17:29;6.18;;;2.63;;
60314;SDS011;46159;42.550;21.904;2023-08-07T02:19:55;5.78;;;2.13;;
60314;SDS011;46159;42.550;21.904;2023-08-07T02:22:22;6.55;;;2.60;;
60314;SDS011;46159;42.550;21.904;2023-08-07T02:24:48;4.40;;;1.73;;
60314;SDS011;46159;42.550;21.904;2023-08-07T02:27:14;8.60;;;3.03;;
60314;SDS011;46159;42.550;21.904;2023-08-07T02:29:40;5.68;;;2.70;;
60314;SDS011;46159;42.550;21.904;2023-08-07T02:32:06;5.53;;;2.58;;
60314;SDS011;46159;42.550;21.904;2023-08-07T02:34:32;6.50;;;2.78;;
60314;SDS011;46159;42.550;21.904;2023-08-07T02:36:58;5.82;;;2.75;;
60314;SDS011;46159;42.550;21.904;2023-08-07T02:39:25;6.32;;;2.92;;
60314;SDS011;46159;42.550;21.904;2023-08-07T02:41:51;6.90;;;2.85;;
60314;SDS011;46159;42.550;21.904;2023-08-07T02:44:17;5.57;;;2.60;;
60314;SDS011;46159;42.550;21.904;2023-08-07T02:46:45;5.35;;;2.67;;
60314;SDS011;46159;42.550;21.904;2023-08-07T02:49:11;7.35;;;2.67;;
60314;SDS011;46159;42.550;21.904;2023-08-07T02:51:37;6.97;;;2.35;;
60314;SDS011;46159;42.550;21.904;2023-08-07T02:54:03;5.95;;;3.20;;
60314;SDS011;46159;42.550;21.904;2023-08-07T02:56:29;6.32;;;3.25;;
60314;SDS011;46159;42.550;21.904;2023-08-07T02:58:55;6.30;;;2.78;;
60314;SDS011;46159;42.550;21.904;2023-08-07T03:01:23;7.45;;;3.13;;
60314;SDS011;46159;42.550;21.904;2023-08-07T03:03:49;6.28;;;3.20;;
60314;SDS011;46159;42.550;21.904;2023-08-07T03:06:15;5.60;;;2.92;;
60314;SDS011;46159;42.550;21.904;2023-08-07T03:08:41;5.80;;;3.20;;
60314;SDS011;46159;42.550;21.904;2023-08-07T03:11:07;9.40;;;3.70;;
60314;SDS011;46159;42.550;21.904;2023-08-07T03:13:34;6.40;;;3.30;;
60314;SDS011;46159;42.550;21.904;2023-08-07T03:16:03;6.47;;;3.25;;
60314;SDS011;46159;42.550;21.904;2023-08-07T03:18:30;7.30;;;3.30;;
60314;SDS011;46159;42.550;21.904;2023-08-07T03:20:56;6.50;;;3.03;;
60314;SDS011;46159;42.550;21.904;2023-08-07T03:23:22;8.50;;;2.90;;
60314;SDS011;46159;42.550;21.904;2023-08-07T03:25:49;6.47;;;2.58;;
60314;SDS011;46159;42.550;21.904;2023-08-07T03:28:16;9.05;;;3.15;;
60314;SDS011;46159;42.550;21.904;2023-08-07T03:30:42;8.40;;;3.80;;
60314;SDS011;46159;42.550;21.904;2023-08-07T03:33:09;7.05;;;2.85;;
60314;SDS011;46159;42.550;21.904;2023-08-07T03:35:35;8.35;;;3.20;;
60314;SDS011;46159;42.550;21.904;2023-08-07T03:38:01;9.50;;;3.10;;
60314;SDS011;46159;42.550;21.904;2023-08-07T03:40:27;6.90;;;2.92;;
60314;SDS011;46159;42.550;21.904;2023-08-07T03:42:53;8.00;;;3.20;;
60314;SDS011;46159;42.550;21.904;2023-08-07T03:45:19;6.47;;;3.10;;
60314;SDS011;46159;42.550;21.904;2023-08-07T03:47:45;6.22;;;3.25;;
60314;SDS011;46159;42.550;21.904;2023-08-07T03:50:11;6.90;;;3.10;;
60314;SDS011;46159;42.550;21.904;2023-08-07T03:52:38;7.57;;;3.17;;
60314;SDS011;46159;42.550;21.904;2023-08-07T03:55:04;6.00;;;2.88;;
60314;SDS011;46159;42.550;21.904;2023-08-07T03:57:30;6.95;;;3.10;;
60314;SDS011;46159;42.550;21.904;2023-08-07T03:59:57;6.25;;;3.25;;
60314;SDS011;46159;42.550;21.904;2023-08-07T04:02:24;6.25;;;3.15;;
60314;SDS011;46159;42.550;21.904;2023-08-07T04:04:50;6.05;;;3.63;;
60314;SDS011;46159;42.550;21.904;2023-08-07T04:07:16;7.25;;;3.03;;
60314;SDS011;46159;42.550;21.904;2023-08-07T04:09:42;7.47;;;2.85;;
60314;SDS011;46159;42.550;21.904;2023-08-07T04:12:08;5.38;;;2.60;;
60314;SDS011;46159;42.550;21.904;2023-08-07T04:14:34;7.45;;;2.78;;
60314;SDS011;46159;42.550;21.904;2023-08-07T04:17:00;5.03;;;2.53;;
60314;SDS011;46159;42.550;21.904;2023-08-07T04:19:27;6.25;;;2.30;;
60314;SDS011;46159;42.550;21.904;2023-08-07T04:21:53;5.25;;;2.30;;
60314;SDS011;46159;42.550;21.904;2023-08-07T04:24:19;5.45;;;2.10;;
60314;SDS011;46159;42.550;21.904;2023-08-07T04:26:45;4.75;;;2.05;;
60314;SDS011;46159;42.550;21.904;2023-08-07T04:29:11;4.57;;;2.10;;
60314;SDS011;46159;42.550;21.904;2023-08-07T04:31:37;4.75;;;1.90;;
60314;SDS011;46159;42.550;21.904;2023-08-07T04:34:03;6.70;;;2.22;;
60314;SDS011;46159;42.550;21.904;2023-08-07T04:36:29;7.28;;;2.22;;
60314;SDS011;46159;42.550;21.904;2023-08-07T04:38:55;4.63;;;1.85;;
60314;SDS011;46159;42.550;21.904;2023-08-07T04:41:22;4.82;;;2.00;;
60314;SDS011;46159;42.550;21.904;2023-08-07T04:43:48;4.50;;;1.83;;
60314;SDS011;46159;42.550;21.904;2023-08-07T04:46:14;7.03;;;2.58;;
60314;SDS011;46159;42.550;21.904;2023-08-07T04:48:40;5.43;;;1.95;;
60314;SDS011;46159;42.550;21.904;2023-08-07T04:51:06;5.28;;;2.00;;
60314;SDS011;46159;42.550;21.904;2023-08-07T04:53:33;6.28;;;2.10;;
60314;SDS011;46159;42.550;21.904;2023-08-07T04:55:59;4.32;;;1.88;;
60314;SDS011;46159;42.550;21.904;2023-08-07T04:58:25;11.02;;;3.28;;
60314;SDS011;46159;42.550;21.904;2023-08-07T05:00:55;5.75;;;2.55;;
60314;SDS011;46159;42.550;21.904;2023-08-07T05:03:21;5.50;;;2.40;;
60314;SDS011;46159;42.550;21.904;2023-08-07T05:05:47;6.18;;;2.65;;
60314;SDS011;46159;42.550;21.904;2023-08-07T05:08:13;9.73;;;2.60;;
60314;SDS011;46159;42.550;21.904;2023-08-07T05:10:39;6.90;;;2.22;;
60314;SDS011;46159;42.550;21.904;2023-08-07T05:13:06;7.25;;;2.90;;
60314;SDS011;46159;42.550;21.904;2023-08-07T05:15:32;5.25;;;2.42;;
60314;SDS011;46159;42.550;21.904;2023-08-07T05:17:58;7.05;;;2.53;;
60314;SDS011;46159;42.550;21.904;2023-08-07T05:20:24;6.45;;;2.78;;
60314;SDS011;46159;42.550;21.904;2023-08-07T05:22:50;5.47;;;2.28;;
60314;SDS011;46159;42.550;21.904;2023-08-07T05:25:16;7.03;;;2.70;;
60314;SDS011;46159;42.550;21.904;2023-08-07T05:27:44;6.82;;;2.72;;
60314;SDS011;46159;42.550;21.904;2023-08-07T05:30:10;5.95;;;2.42;;
60314;SDS011;46159;42.550;21.904;2023-08-07T05:32:36;6.18;;;2.42;;
60314;SDS011;46159;42.550;21.904;2023-08-07T05:35:06;7.28;;;2.22;;
60314;SDS011;46159;42.550;21.904;2023-08-07T05:37:32;5.05;;;2.45;;
60314;SDS011;46159;42.550;21.904;2023-08-07T05:39:58;5.03;;;2.35;;
60314;SDS011;46159;42.550;21.904;2023-08-07T05:42:24;10.15;;;2.30;;
60314;SDS011;46159;42.550;21.904;2023-08-07T05:44:50;5.13;;;2.38;;
60314;SDS011;46159;42.550;21.904;2023-08-07T05:47:16;6.75;;;2.58;;
60314;SDS011;46159;42.550;21.904;2023-08-07T05:49:42;5.70;;;2.25;;
60314;SDS011;46159;42.550;21.904;2023-08-07T05:52:09;5.30;;;2.42;;
60314;SDS011;46159;42.550;21.904;2023-08-07T05:54:35;7.05;;;2.40;;
60314;SDS011;46159;42.550;21.904;2023-08-07T05:57:01;5.10;;;1.90;;
60314;SDS011;46159;42.550;21.904;2023-08-07T05:59:27;7.55;;;2.38;;
60314;SDS011;46159;42.550;21.904;2023-08-07T06:01:53;4.68;;;2.05;;
60314;SDS011;46159;42.550;21.904;2023-08-07T06:04:20;6.78;;;2.35;;
60314;SDS011;46159;42.550;21.904;2023-08-07T06:06:46;6.55;;;2.47;;
60314;SDS011;46159;42.550;21.904;2023-08-07T06:09:12;4.25;;;1.77;;
60314;SDS011;46159;42.550;21.904;2023-08-07T06:11:42;4.93;;;2.30;;
60314;SDS011;46159;42.550;21.904;2023-08-07T06:14:08;7.63;;;2.20;;
60314;SDS011;46159;42.550;21.904;2023-08-07T06:16:35;6.47;;;1.98;;
60314;SDS011;46159;42.550;21.904;2023-08-07T06:19:01;5.40;;;2.67;;
60314;SDS011;46159;42.550;21.904;2023-08-07T06:21:28;10.30;;;2.30;;
60314;SDS011;46159;42.550;21.904;2023-08-07T06:23:54;7.30;;;2.50;;
60314;SDS011;46159;42.550;21.904;2023-08-07T06:26:20;5.80;;;2.30;;
60314;SDS011;46159;42.550;21.904;2023-08-07T06:28:47;6.20;;;2.15;;
60314;SDS011;46159;42.550;21.904;2023-08-07T06:31:13;7.80;;;2.30;;
60314;SDS011;46159;42.550;21.904;2023-08-07T06:33:39;5.43;;;2.00;;
60314;SDS011;46159;42.550;21.904;2023-08-07T06:36:05;4.97;;;2.05;;
60314;SDS011;46159;42.550;21.904;2023-08-07T06:38:32;5.57;;;2.10;;
60314;SDS011;46159;42.550;21.904;2023-08-07T06:40:58;6.15;;;2.10;;
60314;SDS011;46159;42.550;21.904;2023-08-07T06:43:24;4.32;;;1.83;;
60314;SDS011;46159;42.550;21.904;2023-08-07T06:45:51;5.90;;;2.13;;
60314;SDS011;46159;42.550;21.904;2023-08-07T06:48:17;4.85;;;1.70;;
60314;SDS011;46159;42.550;21.904;2023-08-07T06:50:48;6.57;;;1.88;;
60314;SDS011;46159;42.550;21.904;2023-08-07T06:53:14;4.57;;;1.75;;
60314;SDS011;46159;42.550;21.904;2023-08-07T06:55:40;5.13;;;1.70;;
60314;SDS011;46159;42.550;21.904;2023-08-07T06:58:06;4.38;;;1.45;;
60314;SDS011;46159;42.550;21.904;2023-08-07T07:00:33;3.42;;;1.25;;
60314;SDS011;46159;42.550;21.904;2023-08-07T07:03:00;5.78;;;1.83;;
60314;SDS011;46159;42.550;21.904;2023-08-07T07:05:26;5.07;;;1.50;;
60314;SDS011;46159;42.550;21.904;2023-08-07T07:07:52;3.85;;;1.58;;
60314;SDS011;46159;42.550;21.904;2023-08-07T07:10:19;6.95;;;2.00;;
60314;SDS011;46159;42.550;21.904;2023-08-07T07:12:46;5.72;;;1.90;;
60314;SDS011;46159;42.550;21.904;2023-08-07T07:15:12;9.73;;;2.35;;
60314;SDS011;46159;42.550;21.904;2023-08-07T07:17:38;6.50;;;1.40;;
60314;SDS011;46159;42.550;21.904;2023-08-07T07:20:04;3.80;;;1.42;;
60314;SDS011;46159;42.550;21.904;2023-08-07T07:22:31;5.18;;;1.77;;
60314;SDS011;46159;42.550;21.904;2023-08-07T07:24:58;7.18;;;1.30;;
60314;SDS011;46159;42.550;21.904;2023-08-07T07:27:25;4.78;;;1.02;;
60314;SDS011;46159;42.550;21.904;2023-08-07T07:29:51;6.97;;;1.00;;
60314;SDS011;46159;42.550;21.904;2023-08-07T07:32:17;3.20;;;0.70;;
60314;SDS011;46159;42.550;21.904;2023-08-07T07:34:44;3.38;;;0.82;;
60314;SDS011;46159;42.550;21.904;2023-08-07T07:37:10;3.38;;;0.93;;
60314;SDS011;46159;42.550;21.904;2023-08-07T07:39:39;2.67;;;0.80;;
60314;SDS011;46159;42.550;21.904;2023-08-07T07:42:05;2.83;;;0.70;;
60314;SDS011;46159;42.550;21.904;2023-08-07T07:44:31;3.38;;;0.70;;
60314;SDS011;46159;42.550;21.904;2023-08-07T07:46:59;3.13;;;0.80;;
60314;SDS011;46159;42.550;21.904;2023-08-07T07:49:25;3.03;;;0.80;;
60314;SDS011;46159;42.550;21.904;2023-08-07T07:51:51;4.15;;;0.70;;
60314;SDS011;46159;42.550;21.904;2023-08-07T07:54:17;3.28;;;0.80;;
60314;SDS011;46159;42.550;21.904;2023-08-07T07:56:43;2.92;;;1.02;;
60314;SDS011;46159;42.550;21.904;2023-08-07T07:59:09;2.33;;;0.60;;
60314;SDS011;46159;42.550;21.904;2023-08-07T08:01:35;3.03;;;0.70;;
60314;SDS011;46159;42.550;21.904;2023-08-07T08:04:01;3.03;;;0.90;;
60314;SDS011;46159;42.550;21.904;2023-08-07T08:06:27;1.67;;;0.60;;
60314;SDS011;46159;42.550;21.904;2023-08-07T08:08:55;4.35;;;0.82;;
60314;SDS011;46159;42.550;21.904;2023-08-07T08:11:21;6.32;;;1.30;;
60314;SDS011;46159;42.550;21.904;2023-08-07T08:13:47;3.40;;;0.80;;
60314;SDS011;46159;42.550;21.904;2023-08-07T08:16:14;3.72;;;0.70;;
60314;SDS011;46159;42.550;21.904;2023-08-07T08:18:40;3.70;;;0.73;;
60314;SDS011;46159;42.550;21.904;2023-08-07T08:21:06;4.47;;;0.82;;
60314;SDS011;46159;42.550;21.904;2023-08-07T08:23:32;1.48;;;0.57;;
60314;SDS011;46159;42.550;21.904;2023-08-07T08:25:59;2.17;;;0.60;;
60314;SDS011;46159;42.550;21.904;2023-08-07T08:28:25;1.98;;;0.70;;
60314;SDS011;46159;42.550;21.904;2023-08-07T08:30:51;7.43;;;0.98;;
60314;SDS011;46159;42.550;21.904;2023-08-07T08:33:17;3.45;;;0.82;;
60314;SDS011;46159;42.550;21.904;2023-08-07T08:35:43;3.92;;;0.85;;
60314;SDS011;46159;42.550;21.904;2023-08-07T08:38:09;5.32;;;0.75;;
60314;SDS011;46159;42.550;21.904;2023-08-07T08:40:36;4.15;;;0.82;;
60314;SDS011;46159;42.550;21.904;2023-08-07T08:43:03;2.80;;;0.70;;
60314;SDS011;46159;42.550;21.904;2023-08-07T08:45:31;4.65;;;0.85;;
60314;SDS011;46159;42.550;21.904;2023-08-07T08:48:03;3.90;;;0.82;;
60314;SDS011;46159;42.550;21.904;2023-08-07T08:50:31;4.25;;;0.70;;
60314;SDS011;46159;42.550;21.904;2023-08-07T08:52:57;4.97;;;1.10;;
60314;SDS011;46159;42.550;21.904;2023-08-07T08:55:24;3.05;;;1.00;;
60314;SDS011;46159;42.550;21.904;2023-08-07T08:57:51;2.83;;;0.80;;
60314;SDS011;46159;42.550;21.904;2023-08-07T09:00:18;4.85;;;1.02;;
60314;SDS011;46159;42.550;21.904;2023-08-07T09:02:50;3.05;;;0.90;;
60314;SDS011;46159;42.550;21.904;2023-08-07T09:05:18;3.15;;;1.00;;
60314;SDS011;46159;42.550;21.904;2023-08-07T09:07:48;4.25;;;0.85;;
60314;SDS011;46159;42.550;21.904;2023-08-07T09:10:15;7.07;;;2.05;;
60314;SDS011;46159;42.550;21.904;2023-08-07T09:13:02;4.28;;;0.75;;
60314;SDS011;46159;42.550;21.904;2023-08-07T09:15:30;5.00;;;1.10;;
60314;SDS011;46159;42.550;21.904;2023-08-07T09:17:57;5.35;;;0.90;;
60314;SDS011;46159;42.550;21.904;2023-08-07T09:20:24;3.70;;;0.90;;
60314;SDS011;46159;42.550;21.904;2023-08-07T09:22:50;2.35;;;0.80;;
60314;SDS011;46159;42.550;21.904;2023-08-07T09:25:37;4.22;;;1.20;;
60314;SDS011;46159;42.550;21.904;2023-08-07T09:28:06;4.00;;;0.90;;
60314;SDS011;46159;42.550;21.904;2023-08-07T09:30:32;3.38;;;0.80;;
60314;SDS011;46159;42.550;21.904;2023-08-07T09:33:00;2.70;;;0.85;;
60314;SDS011;46159;42.550;21.904;2023-08-07T09:35:27;2.83;;;0.82;;
60314;SDS011;46159;42.550;21.904;2023-08-07T09:37:53;3.13;;;0.82;;
60314;SDS011;46159;42.550;21.904;2023-08-07T09:40:19;4.07;;;0.85;;
60314;SDS011;46159;42.550;21.904;2023-08-07T09:42:49;3.70;;;0.90;;
60314;SDS011;46159;42.550;21.904;2023-08-07T09:45:23;5.35;;;0.80;;
60314;SDS011;46159;42.550;21.904;2023-08-07T09:47:56;3.55;;;1.08;;
60314;SDS011;46159;42.550;21.904;2023-08-07T09:50:23;4.20;;;1.00;;
60314;SDS011;46159;42.550;21.904;2023-08-07T09:52:49;3.58;;;0.93;;
60314;SDS011;46159;42.550;21.904;2023-08-07T09:55:15;4.07;;;0.98;;
60314;SDS011;46159;42.550;21.904;2023-08-07T09:57:44;2.60;;;0.90;;
60314;SDS011;46159;42.550;21.904;2023-08-07T10:00:11;11.88;;;1.52;;
60314;SDS011;46159;42.550;21.904;2023-08-07T10:02:39;4.03;;;0.80;;
60314;SDS011;46159;42.550;21.904;2023-08-07T10:05:05;4.30;;;1.25;;
60314;SDS011;46159;42.550;21.904;2023-08-07T10:07:33;6.43;;;1.10;;
60314;SDS011;46159;42.550;21.904;2023-08-07T10:10:00;4.10;;;1.20;;
60314;SDS011;46159;42.550;21.904;2023-08-07T10:12:26;5.40;;;1.33;;
60314;SDS011;46159;42.550;21.904;2023-08-07T10:14:53;4.00;;;1.13;;
60314;SDS011;46159;42.550;21.904;2023-08-07T10:17:21;2.90;;;0.70;;
60314;SDS011;46159;42.550;21.904;2023-08-07T10:19:48;11.52;;;2.03;;
60314;SDS011;46159;42.550;21.904;2023-08-07T10:22:18;3.47;;;0.95;;
60314;SDS011;46159;42.550;21.904;2023-08-07T10:24:46;6.63;;;1.30;;
60314;SDS011;46159;42.550;21.904;2023-08-07T10:27:13;3.25;;;0.98;;
60314;SDS011;46159;42.550;21.904;2023-08-07T10:29:41;4.30;;;1.00;;
60314;SDS011;46159;42.550;21.904;2023-08-07T10:32:07;2.47;;;0.90;;
60314;SDS011;46159;42.550;21.904;2023-08-07T10:34:34;2.75;;;1.00;;
60314;SDS011;46159;42.550;21.904;2023-08-07T10:37:00;4.85;;;0.93;;
60314;SDS011;46159;42.550;21.904;2023-08-07T10:39:27;4.40;;;1.05;;
60314;SDS011;46159;42.550;21.904;2023-08-07T10:41:53;4.57;;;1.55;;
60314;SDS011;46159;42.550;21.904;2023-08-07T10:44:26;5.72;;;1.70;;
60314;SDS011;46159;42.550;21.904;2023-08-07T10:46:53;3.55;;;1.08;;
60314;SDS011;46159;42.550;21.904;2023-08-07T10:49:38;5.13;;;1.60;;
60314;SDS011;46159;42.550;21.904;2023-08-07T10:52:08;3.78;;;1.20;;
60314;SDS011;46159;42.550;21.904;2023-08-07T10:54:45;6.18;;;1.20;;
60314;SDS011;46159;42.550;21.904;2023-08-07T10:57:12;6.20;;;1.00;;
60314;SDS011;46159;42.550;21.904;2023-08-07T10:59:43;4.38;;;1.25;;
60314;SDS011;46159;42.550;21.904;2023-08-07T11:02:11;5.07;;;1.10;;
60314;SDS011;46159;42.550;21.904;2023-08-07T11:04:38;3.15;;;0.82;;
60314;SDS011;46159;42.550;21.904;2023-08-07T11:07:04;4.20;;;1.33;;
60314;SDS011;46159;42.550;21.904;2023-08-07T11:09:31;4.35;;;1.20;;
60314;SDS011;46159;42.550;21.904;2023-08-07T11:11:59;5.82;;;1.30;;
60314;SDS011;46159;42.550;21.904;2023-08-07T11:14:25;4.05;;;1.10;;
60314;SDS011;46159;42.550;21.904;2023-08-07T11:16:52;4.50;;;1.20;;
60314;SDS011;46159;42.550;21.904;2023-08-07T11:19:18;5.03;;;1.20;;
60314;SDS011;46159;42.550;21.904;2023-08-07T11:21:44;5.28;;;1.38;;
60314;SDS011;46159;42.550;21.904;2023-08-07T11:24:14;5.72;;;1.27;;
60314;SDS011;46159;42.550;21.904;2023-08-07T11:26:45;5.75;;;1.35;;
60314;SDS011;46159;42.550;21.904;2023-08-07T11:29:15;5.90;;;1.40;;
60314;SDS011;46159;42.550;21.904;2023-08-07T11:31:41;8.02;;;1.65;;
60314;SDS011;46159;42.550;21.904;2023-08-07T11:34:07;7.90;;;1.83;;
60314;SDS011;46159;42.550;21.904;2023-08-07T11:36:37;4.95;;;1.55;;
60314;SDS011;46159;42.550;21.904;2023-08-07T11:39:05;4.22;;;1.20;;
60314;SDS011;46159;42.550;21.904;2023-08-07T11:41:31;3.67;;;1.10;;
60314;SDS011;46159;42.550;21.904;2023-08-07T11:43:58;4.85;;;1.85;;
60314;SDS011;46159;42.550;21.904;2023-08-07T11:46:25;4.07;;;1.30;;
60314;SDS011;46159;42.550;21.904;2023-08-07T11:48:51;6.68;;;1.38;;
60314;SDS011;46159;42.550;21.904;2023-08-07T11:51:19;6.13;;;1.40;;
60314;SDS011;46159;42.550;21.904;2023-08-07T11:53:46;4.35;;;1.40;;
60314;SDS011;46159;42.550;21.904;2023-08-07T11:56:12;5.00;;;1.40;;
60314;SDS011;46159;42.550;21.904;2023-08-07T11:58:43;6.80;;;2.15;;
60314;SDS011;46159;42.550;21.904;2023-08-07T12:01:14;4.78;;;1.77;;
60314;SDS011;46159;42.550;21.904;2023-08-07T12:03:54;8.80;;;2.13;;
60314;SDS011;46159;42.550;21.904;2023-08-07T12:06:21;7.03;;;1.90;;
60314;SDS011;46159;42.550;21.904;2023-08-07T12:08:48;5.22;;;1.88;;
60314;SDS011;46159;42.550;21.904;2023-08-07T12:11:16;5.75;;;2.30;;
60314;SDS011;46159;42.550;21.904;2023-08-07T12:13:43;6.07;;;2.33;;
60314;SDS011;46159;42.550;21.904;2023-08-07T12:16:10;6.43;;;1.50;;
60314;SDS011;46159;42.550;21.904;2023-08-07T12:18:43;5.57;;;1.70;;
60314;SDS011;46159;42.550;21.904;2023-08-07T12:21:09;11.43;;;2.60;;
60314;SDS011;46159;42.550;21.904;2023-08-07T12:23:36;5.93;;;1.90;;
60314;SDS011;46159;42.550;21.904;2023-08-07T12:26:03;10.48;;;4.45;;
60314;SDS011;46159;42.550;21.904;2023-08-07T12:28:32;7.32;;;3.22;;
60314;SDS011;46159;42.550;21.904;2023-08-07T12:30:59;10.52;;;3.05;;
60314;SDS011;46159;42.550;21.904;2023-08-07T12:33:25;9.57;;;4.00;;
60314;SDS011;46159;42.550;21.904;2023-08-07T12:35:51;6.97;;;3.08;;
60314;SDS011;46159;42.550;21.904;2023-08-07T12:38:18;6.07;;;2.72;;
60314;SDS011;46159;42.550;21.904;2023-08-07T12:40:44;5.28;;;1.92;;
60314;SDS011;46159;42.550;21.904;2023-08-07T12:43:10;6.50;;;3.17;;
60314;SDS011;46159;42.550;21.904;2023-08-07T12:45:36;6.35;;;2.63;;
60314;SDS011;46159;42.550;21.904;2023-08-07T12:48:03;7.45;;;3.50;;
60314;SDS011;46159;42.550;21.904;2023-08-07T12:50:29;7.07;;;3.30;;
60314;SDS011;46159;42.550;21.904;2023-08-07T12:52:55;6.93;;;2.58;;
60314;SDS011;46159;42.550;21.904;2023-08-07T12:55:21;7.28;;;2.50;;
60314;SDS011;46159;42.550;21.904;2023-08-07T12:57:47;8.63;;;3.00;;
60314;SDS011;46159;42.550;21.904;2023-08-07T13:00:14;9.93;;;3.00;;
60314;SDS011;46159;42.550;21.904;2023-08-07T13:02:41;6.88;;;2.92;;
60314;SDS011;46159;42.550;21.904;2023-08-07T13:05:07;5.18;;;2.28;;
60314;SDS011;46159;42.550;21.904;2023-08-07T13:07:34;8.13;;;2.83;;
60314;SDS011;46159;42.550;21.904;2023-08-07T13:10:01;7.22;;;2.80;;
60314;SDS011;46159;42.550;21.904;2023-08-07T13:12:27;9.05;;;3.00;;
60314;SDS011;46159;42.550;21.904;2023-08-07T13:14:53;7.20;;;2.25;;
60314;SDS011;46159;42.550;21.904;2023-08-07T13:17:19;6.63;;;2.83;;
60314;SDS011;46159;42.550;21.904;2023-08-07T13:19:45;8.77;;;3.47;;
60314;SDS011;46159;42.550;21.904;2023-08-07T13:22:11;6.07;;;2.38;;
60314;SDS011;46159;42.550;21.904;2023-08-07T13:24:37;9.75;;;3.47;;
60314;SDS011;46159;42.550;21.904;2023-08-07T13:27:03;8.13;;;3.67;;
60314;SDS011;46159;42.550;21.904;2023-08-07T13:29:29;8.57;;;3.63;;
60314;SDS011;46159;42.550;21.904;2023-08-07T13:31:55;8.65;;;2.25;;
60314;SDS011;46159;42.550;21.904;2023-08-07T13:34:21;7.85;;;3.47;;
60314;SDS011;46159;42.550;21.904;2023-08-07T13:36:49;8.40;;;3.72;;
60314;SDS011;46159;42.550;21.904;2023-08-07T13:39:15;7.30;;;3.15;;
60314;SDS011;46159;42.550;21.904;2023-08-07T13:41:41;6.57;;;3.10;;
60314;SDS011;46159;42.550;21.904;2023-08-07T13:44:07;10.90;;;3.47;;
60314;SDS011;46159;42.550;21.904;2023-08-07T13:46:34;10.93;;;3.08;;
60314;SDS011;46159;42.550;21.904;2023-08-07T13:49:00;9.45;;;3.33;;
60314;SDS011;46159;42.550;21.904;2023-08-07T13:51:27;9.10;;;3.20;;
60314;SDS011;46159;42.550;21.904;2023-08-07T13:53:53;9.20;;;3.50;;
60314;SDS011;46159;42.550;21.904;2023-08-07T13:56:19;10.63;;;3.80;;
60314;SDS011;46159;42.550;21.904;2023-08-07T13:58:46;13.93;;;3.95;;
60314;SDS011;46159;42.550;21.904;2023-08-07T14:01:20;6.03;;;2.85;;
60314;SDS011;46159;42.550;21.904;2023-08-07T14:03:50;5.82;;;2.70;;
60314;SDS011;46159;42.550;21.904;2023-08-07T14:06:16;11.38;;;3.10;;
60314;SDS011;46159;42.550;21.904;2023-08-07T14:08:42;8.93;;;2.83;;
60314;SDS011;46159;42.550;21.904;2023-08-07T14:11:08;7.07;;;2.80;;
60314;SDS011;46159;42.550;21.904;2023-08-07T14:13:34;5.97;;;2.85;;
60314;SDS011;46159;42.550;21.904;2023-08-07T14:16:00;6.30;;;2.40;;
60314;SDS011;46159;42.550;21.904;2023-08-07T14:18:26;6.65;;;2.35;;
60314;SDS011;46159;42.550;21.904;2023-08-07T14:20:52;6.32;;;2.75;;
60314;SDS011;46159;42.550;21.904;2023-08-07T14:23:18;5.70;;;2.53;;
60314;SDS011;46159;42.550;21.904;2023-08-07T14:25:45;5.35;;;2.70;;
60314;SDS011;46159;42.550;21.904;2023-08-07T14:28:13;5.93;;;2.58;;
60314;SDS011;46159;42.550;21.904;2023-08-07T14:30:39;6.70;;;2.47;;
60314;SDS011;46159;42.550;21.904;2023-08-07T14:33:05;7.32;;;2.83;;
60314;SDS011;46159;42.550;21.904;2023-08-07T14:35:32;10.05;;;3.00;;
60314;SDS011;46159;42.550;21.904;2023-08-07T14:37:59;11.82;;;2.60;;
60314;SDS011;46159;42.550;21.904;2023-08-07T14:40:25;6.97;;;2.40;;